Terminal Aerodrome Forecast
Issued by NWS

Home | Current Version | Previous Version | Text Only | Print | Product List | Glossary On
Versions: 1 2 3 4 5 6 7 8 9 10 11 12 13 14 15 16 17 18 19 20 21 22 23 24
000
FTUS43 KDLH 220900 AAB
TAFHYR
TAF AMD
KHYR 220919Z 2209/2306 23007KT P6SM VCSH OVC021
     FM221200 24008KT 5SM BR VCSH SCT012 OVC025
     FM221600 29012G20KT P6SM BKN035
     FM222000 29014G20KT P6SM BKN040=

USA.gov is the U.S. government's official web portal to all federal, state and local government web resources and services.